createdAt,value
2022-08-17T00:02:26.258Z,23.73
2022-08-17T00:07:31.064Z,23.15
2022-08-17T00:12:44.549Z,24.45
2022-08-17T00:17:48.672Z,24.95
2022-08-17T00:23:03.962Z,24.77
2022-08-17T00:28:07.589Z,25.23
2022-08-17T00:33:23.149Z,29.45
2022-08-17T00:38:29.358Z,28.27
2022-08-17T00:43:35.542Z,27.73
2022-08-17T00:48:39.261Z,26.05
2022-08-17T00:53:48.485Z,26.02
2022-08-17T00:58:53.237Z,27.02
2022-08-17T01:04:00.029Z,28.23
2022-08-17T01:09:06.107Z,29.60
2022-08-17T01:14:09.875Z,27.60
2022-08-17T01:19:18.277Z,27.73
2022-08-17T01:24:22.671Z,24.77
2022-08-17T01:29:26.623Z,26.27
2022-08-17T01:34:42.428Z,25.90
2022-08-17T01:39:51.474Z,27.30
2022-08-17T01:44:57.957Z,21.27
2022-08-17T01:50:07.503Z,25.27
2022-08-17T01:55:11.984Z,23.98
2022-08-17T02:00:15.829Z,21.50
2022-08-17T02:05:18.470Z,23.00
2022-08-17T02:10:22.820Z,24.35
2022-08-17T02:15:25.819Z,22.05
2022-08-17T02:20:41.303Z,23.17
2022-08-17T02:25:48.836Z,25.88
2022-08-17T02:31:01.562Z,26.42
2022-08-17T02:36:06.423Z,25.33
2022-08-17T02:41:13.003Z,26.63
2022-08-17T02:46:15.565Z,26.33
2022-08-17T02:51:18.115Z,30.55
2022-08-17T02:56:22.034Z,28.52
2022-08-17T03:01:24.632Z,28.73
2022-08-17T03:06:28.441Z,30.83
2022-08-17T03:11:32.384Z,28.17
2022-08-17T03:16:35.067Z,25.38
2022-08-17T03:21:39.044Z,27.55
2022-08-17T03:26:42.930Z,25.50
2022-08-17T03:31:46.523Z,24.58
2022-08-17T03:36:49.074Z,22.52
2022-08-17T03:41:53.012Z,19.58
2022-08-17T03:47:13.551Z,21.55
2022-08-17T03:52:33.975Z,21.73
2022-08-17T03:57:37.955Z,20.70
2022-08-17T04:02:41.806Z,22.67
2022-08-17T04:07:45.472Z,24.90
2022-08-17T04:12:54.502Z,26.50
2022-08-17T04:17:57.061Z,24.58
2022-08-17T04:23:03.110Z,25.60
2022-08-17T04:28:14.565Z,25.67
2022-08-17T04:33:21.053Z,26.90
2022-08-17T04:38:26.740Z,34.50
2022-08-17T04:43:32.533Z,26.95
2022-08-17T04:48:38.849Z,29.02
2022-08-17T04:53:44.106Z,28.98
2022-08-17T04:58:51.374Z,28.75
2022-08-17T05:03:56.114Z,30.73
2022-08-17T05:08:59.898Z,28.98
2022-08-17T05:14:04.607Z,28.90
2022-08-17T05:19:07.271Z,28.45
2022-08-17T05:24:38.169Z,26.27
2022-08-17T05:29:35.743Z,29.02
2022-08-17T05:34:39.151Z,30.60
2022-08-17T05:39:41.910Z,25.80
2022-08-17T05:55:04.347Z,25.30
2022-08-17T06:00:16.976Z,25.08
2022-08-17T06:05:45.453Z,24.77
2022-08-17T06:10:57.961Z,24.23
2022-08-17T06:16:33.019Z,23.08
2022-08-17T06:21:34.238Z,23.42
2022-08-17T06:26:43.153Z,21.10
2022-08-17T06:31:47.782Z,20.98
2022-08-17T06:36:59.146Z,24.23
2022-08-17T06:43:02.437Z,19.80
2022-08-17T06:47:47.405Z,20.85
2022-08-17T06:52:58.061Z,25.55
2022-08-17T06:58:16.186Z,26.00
2022-08-17T07:03:29.191Z,22.92
2022-08-17T07:13:51.410Z,23.35
2022-08-17T07:24:29.189Z,26.48
2022-08-17T07:29:36.488Z,28.10
2022-08-17T07:35:15.404Z,28.13
2022-08-17T07:40:26.398Z,26.52
2022-08-17T07:45:48.629Z,26.90
2022-08-17T07:50:54.055Z,29.58
2022-08-17T07:55:56.866Z,30.98
2022-08-17T08:01:09.725Z,30.23
2022-08-17T08:06:23.572Z,25.45
2022-08-17T08:11:34.498Z,28.00
2022-08-17T08:16:37.363Z,24.60
2022-08-17T08:21:56.317Z,25.58
2022-08-17T08:27:08.739Z,25.63
2022-08-17T08:37:37.963Z,26.40
2022-08-17T08:42:50.620Z,25.55
2022-08-17T08:48:23.025Z,26.13
2022-08-17T08:53:43.383Z,26.92
2022-08-17T08:58:52.796Z,24.43
2022-08-17T09:04:25.049Z,26.45
2022-08-17T09:09:45.405Z,24.98
2022-08-17T09:14:55.422Z,24.05
2022-08-17T09:20:04.928Z,24.85
2022-08-17T09:25:12.264Z,23.40
2022-08-17T09:30:15.277Z,26.27
2022-08-17T09:35:22.787Z,23.92
2022-08-17T09:40:29.988Z,24.20
2022-08-17T09:45:36.420Z,24.65
2022-08-17T09:51:03.940Z,23.17
2022-08-17T09:56:23.983Z,23.00
2022-08-17T10:01:36.395Z,22.58
2022-08-17T10:06:50.829Z,24.23
2022-08-17T10:12:20.452Z,22.90
2022-08-17T10:17:29.453Z,24.50
2022-08-17T10:22:59.471Z,24.65
2022-08-17T10:28:10.693Z,24.23
2022-08-17T10:33:27.846Z,23.50
2022-08-17T10:38:38.576Z,22.25
2022-08-17T10:44:35.428Z,21.58
2022-08-17T10:49:33.835Z,21.30
2022-08-17T10:54:46.583Z,25.38
2022-08-17T10:59:52.877Z,22.00
2022-08-17T11:05:18.795Z,23.48
2022-08-17T11:10:51.941Z,22.10
2022-08-17T11:16:08.860Z,24.27
2022-08-17T11:21:37.679Z,25.23
2022-08-17T11:26:46.233Z,22.90
2022-08-17T11:32:05.037Z,24.88
2022-08-17T11:37:33.105Z,22.80
2022-08-17T11:42:54.254Z,22.98
2022-08-17T11:48:28.454Z,21.58
2022-08-17T11:54:31.566Z,22.92
2022-08-17T11:59:58.648Z,22.23
2022-08-17T12:05:26.075Z,26.83
2022-08-17T12:10:32.435Z,26.02
2022-08-17T12:15:40.330Z,25.90
2022-08-17T12:20:50.948Z,22.58
2022-08-17T12:26:00.592Z,26.35
2022-08-17T12:31:05.768Z,30.00
2022-08-17T12:36:15.875Z,26.15
2022-08-17T12:41:32.093Z,24.92
2022-08-17T12:46:47.411Z,29.02
2022-08-17T12:51:57.531Z,36.28
2022-08-17T12:57:06.357Z,32.47
2022-08-17T13:02:19.791Z,41.85
2022-08-17T13:07:35.100Z,43.70
2022-08-17T13:12:37.779Z,42.88
2022-08-17T13:17:40.615Z,49.38
2022-08-17T13:22:45.293Z,45.58
2022-08-17T13:27:51.581Z,46.65
2022-08-17T13:32:55.917Z,53.33
2022-08-17T13:38:05.470Z,58.40
2022-08-17T13:43:08.969Z,57.03
2022-08-17T13:48:20.495Z,60.50
2022-08-17T13:53:27.597Z,56.53
2022-08-17T13:58:33.315Z,62.38
2022-08-17T14:03:36.301Z,54.85
2022-08-17T14:08:40.389Z,54.13
2022-08-17T14:13:43.095Z,52.55
2022-08-17T14:24:01.395Z,59.70
2022-08-17T14:29:04.039Z,55.13
2022-08-17T14:34:17.737Z,59.22
2022-08-17T14:39:22.333Z,55.38
2022-08-17T14:44:25.117Z,48.42
2022-08-17T14:49:28.125Z,43.00
2022-08-17T14:54:34.057Z,38.72
2022-08-17T14:59:37.306Z,36.08
2022-08-17T15:04:48.043Z,40.00
2022-08-17T15:09:52.439Z,37.90
2022-08-17T15:14:55.208Z,33.75
2022-08-17T15:19:57.893Z,29.73
2022-08-17T15:25:05.769Z,28.67
2022-08-17T15:30:10.488Z,29.35
2022-08-17T15:35:13.971Z,28.45
2022-08-17T15:40:18.084Z,31.02
2022-08-17T15:45:24.662Z,36.20
2022-08-17T15:50:27.406Z,44.63
2022-08-17T15:55:33.387Z,39.80
2022-08-17T16:00:51.582Z,42.78
2022-08-17T16:06:00.464Z,46.83
2022-08-17T16:11:05.080Z,45.05
2022-08-17T16:16:08.392Z,45.65
2022-08-17T16:21:31.315Z,46.78
2022-08-17T16:26:49.048Z,46.40
2022-08-17T16:31:52.208Z,45.95
2022-08-17T16:36:56.505Z,43.10
2022-08-17T16:42:02.707Z,41.60
2022-08-17T16:47:07.414Z,42.95
2022-08-17T16:52:11.395Z,44.58
2022-08-17T16:57:17.520Z,45.38
2022-08-17T17:02:29.559Z,52.28
2022-08-17T17:07:53.436Z,50.38
2022-08-17T17:13:02.489Z,52.38
2022-08-17T17:18:12.613Z,54.42
2022-08-17T17:23:31.136Z,56.10
2022-08-17T17:28:44.187Z,46.28
2022-08-17T17:33:52.490Z,48.17
2022-08-17T17:39:00.583Z,45.17
2022-08-17T17:44:09.037Z,47.85
2022-08-17T17:49:14.205Z,53.90
2022-08-17T17:54:33.323Z,56.72
2022-08-17T17:59:44.829Z,56.25
2022-08-17T18:05:00.660Z,54.95
2022-08-17T18:10:19.573Z,59.28
2022-08-17T18:15:37.873Z,62.35
2022-08-17T18:20:53.479Z,67.95
2022-08-17T18:25:59.415Z,72.75
2022-08-17T18:31:20.623Z,67.97
2022-08-17T18:36:28.998Z,73.28
2022-08-17T18:41:41.527Z,67.05
2022-08-17T18:46:45.599Z,61.47
2022-08-17T18:51:50.333Z,70.88
2022-08-17T18:56:55.752Z,70.70
2022-08-17T19:02:16.096Z,70.55
2022-08-17T19:07:29.293Z,69.43
2022-08-17T19:12:38.144Z,72.35
2022-08-17T19:17:47.779Z,77.68
2022-08-17T19:23:01.896Z,84.75
2022-08-17T19:28:21.684Z,84.55
2022-08-17T19:33:27.482Z,79.97
2022-08-17T19:38:41.477Z,78.05
2022-08-17T19:44:09.811Z,87.97
2022-08-17T19:49:22.092Z,83.00
2022-08-17T19:54:47.255Z,81.00
2022-08-17T19:59:57.538Z,91.47
2022-08-17T20:05:06.597Z,90.93
2022-08-17T20:10:14.496Z,115.60
2022-08-17T20:15:25.462Z,114.25
2022-08-17T20:20:37.756Z,132.50
2022-08-17T20:25:47.308Z,142.90
2022-08-17T20:30:50.780Z,128.20
2022-08-17T20:36:18.722Z,130.27
2022-08-17T20:41:22.961Z,123.82
2022-08-17T20:46:42.350Z,112.68
2022-08-17T20:52:01.420Z,112.68
2022-08-17T20:57:09.224Z,108.38
2022-08-17T21:02:21.363Z,111.07
2022-08-17T21:07:30.027Z,114.45
2022-08-17T21:12:44.737Z,109.65
2022-08-17T21:17:51.346Z,105.78
2022-08-17T21:23:12.341Z,107.45
2022-08-17T21:28:30.017Z,98.85
2022-08-17T21:33:38.978Z,98.45
2022-08-17T21:38:57.644Z,96.43
2022-08-17T21:44:06.357Z,96.20
2022-08-17T21:49:13.958Z,83.68
2022-08-17T21:54:31.883Z,84.60
2022-08-17T21:59:38.390Z,85.07
2022-08-17T22:04:42.542Z,81.78
2022-08-17T22:09:48.236Z,75.75
2022-08-17T22:15:00.429Z,75.57
2022-08-17T22:20:08.610Z,76.53
2022-08-17T22:25:22.456Z,80.60
2022-08-17T22:30:33.362Z,88.05
2022-08-17T22:35:41.670Z,86.00
2022-08-17T22:40:49.669Z,90.82
2022-08-17T22:45:55.523Z,83.38
2022-08-17T22:51:12.849Z,75.85
2022-08-17T22:56:38.494Z,77.72
2022-08-17T23:01:42.943Z,74.28
2022-08-17T23:06:45.535Z,73.07
2022-08-17T23:11:53.419Z,75.97
2022-08-17T23:16:56.290Z,75.25
2022-08-17T23:27:07.322Z,74.37
2022-08-17T23:32:12.231Z,75.63
2022-08-17T23:37:15.437Z,73.95
2022-08-17T23:42:22.024Z,74.55
2022-08-17T23:47:24.665Z,71.10
2022-08-17T23:52:27.973Z,74.95
2022-08-17T23:57:33.780Z,64.25
